sensor_id;sensor_type;location;lat;lon;timestamp;temperature;humidity
5055;DHT22;13829;48.990;8.346;2023-05-07T00:01:39;14.40;99.90
5055;DHT22;13829;48.990;8.346;2023-05-07T00:04:06;14.50;99.90
5055;DHT22;13829;48.990;8.346;2023-05-07T00:06:33;14.60;99.90
5055;DHT22;13829;48.990;8.346;2023-05-07T00:09:00;14.70;99.90
5055;DHT22;13829;48.990;8.346;2023-05-07T00:11:27;14.70;99.90
5055;DHT22;13829;48.990;8.346;2023-05-07T00:13:54;14.80;99.90
5055;DHT22;13829;48.990;8.346;2023-05-07T00:16:23;14.80;99.90
5055;DHT22;13829;48.990;8.346;2023-05-07T00:18:50;14.80;99.90
5055;DHT22;13829;48.990;8.346;2023-05-07T00:21:17;14.80;99.90
5055;DHT22;13829;48.990;8.346;2023-05-07T00:23:44;14.80;99.90
5055;DHT22;13829;48.990;8.346;2023-05-07T00:26:11;14.80;99.90
5055;DHT22;13829;48.990;8.346;2023-05-07T00:28:37;14.80;99.90
5055;DHT22;13829;48.990;8.346;2023-05-07T00:31:04;14.80;99.90
5055;DHT22;13829;48.990;8.346;2023-05-07T00:33:33;14.80;99.90
5055;DHT22;13829;48.990;8.346;2023-05-07T00:35:59;14.70;99.90
5055;DHT22;13829;48.990;8.346;2023-05-07T00:38:27;14.70;99.90
5055;DHT22;13829;48.990;8.346;2023-05-07T00:40:54;14.70;99.90
5055;DHT22;13829;48.990;8.346;2023-05-07T00:43:21;14.70;99.90
5055;DHT22;13829;48.990;8.346;2023-05-07T00:45:48;14.80;99.90
5055;DHT22;13829;48.990;8.346;2023-05-07T00:48:16;14.90;99.90
5055;DHT22;13829;48.990;8.346;2023-05-07T00:50:45;14.90;99.90
5055;DHT22;13829;48.990;8.346;2023-05-07T00:53:12;14.80;99.90
5055;DHT22;13829;48.990;8.346;2023-05-07T00:55:40;14.80;99.90
5055;DHT22;13829;48.990;8.346;2023-05-07T00:58:07;14.80;99.90
5055;DHT22;13829;48.990;8.346;2023-05-07T01:00:34;14.80;99.90
5055;DHT22;13829;48.990;8.346;2023-05-07T01:03:01;14.70;99.90
5055;DHT22;13829;48.990;8.346;2023-05-07T01:05:29;14.70;99.90
5055;DHT22;13829;48.990;8.346;2023-05-07T01:07:58;14.90;99.90
5055;DHT22;13829;48.990;8.346;2023-05-07T01:10:26;14.90;99.90
5055;DHT22;13829;48.990;8.346;2023-05-07T01:12:57;15.00;99.90
5055;DHT22;13829;48.990;8.346;2023-05-07T01:15:25;15.00;99.90
5055;DHT22;13829;48.990;8.346;2023-05-07T01:17:52;15.00;99.90
5055;DHT22;13829;48.990;8.346;2023-05-07T01:20:20;15.00;99.90
5055;DHT22;13829;48.990;8.346;2023-05-07T01:22:49;14.90;99.90
5055;DHT22;13829;48.990;8.346;2023-05-07T01:25:17;15.00;99.90
5055;DHT22;13829;48.990;8.346;2023-05-07T01:27:44;14.90;99.90
5055;DHT22;13829;48.990;8.346;2023-05-07T01:30:12;14.80;99.90
5055;DHT22;13829;48.990;8.346;2023-05-07T01:32:43;14.80;99.90
5055;DHT22;13829;48.990;8.346;2023-05-07T01:35:18;14.70;99.90
5055;DHT22;13829;48.990;8.346;2023-05-07T01:37:49;14.60;99.90
5055;DHT22;13829;48.990;8.346;2023-05-07T01:40:17;14.60;99.90
5055;DHT22;13829;48.990;8.346;2023-05-07T01:42:44;14.70;99.90
5055;DHT22;13829;48.990;8.346;2023-05-07T01:45:13;14.80;99.90
5055;DHT22;13829;48.990;8.346;2023-05-07T01:47:41;14.80;99.90
5055;DHT22;13829;48.990;8.346;2023-05-07T01:50:09;14.70;99.90
5055;DHT22;13829;48.990;8.346;2023-05-07T01:52:37;14.70;99.90
5055;DHT22;13829;48.990;8.346;2023-05-07T01:55:07;14.80;99.90
5055;DHT22;13829;48.990;8.346;2023-05-07T01:57:34;14.70;99.90
5055;DHT22;13829;48.990;8.346;2023-05-07T02:00:02;14.60;99.90
5055;DHT22;13829;48.990;8.346;2023-05-07T02:02:30;14.60;99.90
5055;DHT22;13829;48.990;8.346;2023-05-07T02:04:58;14.60;99.90
5055;DHT22;13829;48.990;8.346;2023-05-07T02:07:25;14.60;99.90
5055;DHT22;13829;48.990;8.346;2023-05-07T02:09:52;14.50;99.90
5055;DHT22;13829;48.990;8.346;2023-05-07T02:12:22;14.50;99.90
5055;DHT22;13829;48.990;8.346;2023-05-07T02:14:49;14.40;99.90
5055;DHT22;13829;48.990;8.346;2023-05-07T02:17:16;14.40;99.90
5055;DHT22;13829;48.990;8.346;2023-05-07T02:19:43;14.30;99.90
5055;DHT22;13829;48.990;8.346;2023-05-07T02:22:10;14.20;99.90
5055;DHT22;13829;48.990;8.346;2023-05-07T02:24:37;14.20;99.90
5055;DHT22;13829;48.990;8.346;2023-05-07T02:27:04;14.30;99.90
5055;DHT22;13829;48.990;8.346;2023-05-07T02:29:32;14.30;99.90
5055;DHT22;13829;48.990;8.346;2023-05-07T02:31:59;14.30;99.90
5055;DHT22;13829;48.990;8.346;2023-05-07T02:34:26;14.40;99.90
5055;DHT22;13829;48.990;8.346;2023-05-07T02:36:53;14.30;99.90
5055;DHT22;13829;48.990;8.346;2023-05-07T02:39:21;14.30;99.90
5055;DHT22;13829;48.990;8.346;2023-05-07T02:41:48;14.30;99.90
5055;DHT22;13829;48.990;8.346;2023-05-07T02:44:15;14.20;99.90
5055;DHT22;13829;48.990;8.346;2023-05-07T02:46:43;14.30;99.90
5055;DHT22;13829;48.990;8.346;2023-05-07T02:49:10;14.30;99.90
5055;DHT22;13829;48.990;8.346;2023-05-07T02:51:37;14.20;99.90
5055;DHT22;13829;48.990;8.346;2023-05-07T02:54:04;14.10;99.90
5055;DHT22;13829;48.990;8.346;2023-05-07T02:56:31;14.10;99.90
5055;DHT22;13829;48.990;8.346;2023-05-07T02:58:58;14.00;99.90
5055;DHT22;13829;48.990;8.346;2023-05-07T03:01:25;14.00;99.90
5055;DHT22;13829;48.990;8.346;2023-05-07T03:03:53;13.90;99.90
5055;DHT22;13829;48.990;8.346;2023-05-07T03:06:20;13.90;99.90
5055;DHT22;13829;48.990;8.346;2023-05-07T03:08:47;13.90;99.90
5055;DHT22;13829;48.990;8.346;2023-05-07T03:11:14;14.00;99.90
5055;DHT22;13829;48.990;8.346;2023-05-07T03:13:41;13.90;99.90
5055;DHT22;13829;48.990;8.346;2023-05-07T03:16:08;13.90;99.90
5055;DHT22;13829;48.990;8.346;2023-05-07T03:18:35;13.80;99.90
5055;DHT22;13829;48.990;8.346;2023-05-07T03:21:03;13.90;99.90
5055;DHT22;13829;48.990;8.346;2023-05-07T03:23:30;13.80;99.90
5055;DHT22;13829;48.990;8.346;2023-05-07T03:25:57;13.80;99.90
5055;DHT22;13829;48.990;8.346;2023-05-07T03:28:24;13.80;99.90
5055;DHT22;13829;48.990;8.346;2023-05-07T03:30:51;13.70;99.90
5055;DHT22;13829;48.990;8.346;2023-05-07T03:33:18;13.70;99.90
5055;DHT22;13829;48.990;8.346;2023-05-07T03:35:45;13.70;99.90
5055;DHT22;13829;48.990;8.346;2023-05-07T03:38:13;13.70;99.90
5055;DHT22;13829;48.990;8.346;2023-05-07T03:40:40;13.60;99.90
5055;DHT22;13829;48.990;8.346;2023-05-07T03:43:07;13.60;99.90
5055;DHT22;13829;48.990;8.346;2023-05-07T03:45:34;13.70;99.90
5055;DHT22;13829;48.990;8.346;2023-05-07T03:48:01;13.70;99.90
5055;DHT22;13829;48.990;8.346;2023-05-07T03:50:28;13.70;99.90
5055;DHT22;13829;48.990;8.346;2023-05-07T03:52:55;13.60;99.90
5055;DHT22;13829;48.990;8.346;2023-05-07T03:55:23;13.60;99.90
5055;DHT22;13829;48.990;8.346;2023-05-07T03:57:50;13.60;99.90
5055;DHT22;13829;48.990;8.346;2023-05-07T04:00:17;13.60;99.90
5055;DHT22;13829;48.990;8.346;2023-05-07T04:02:45;13.70;99.90
5055;DHT22;13829;48.990;8.346;2023-05-07T04:05:13;13.60;99.90
5055;DHT22;13829;48.990;8.346;2023-05-07T04:07:41;13.60;99.90
5055;DHT22;13829;48.990;8.346;2023-05-07T04:10:08;13.60;99.90
5055;DHT22;13829;48.990;8.346;2023-05-07T04:12:37;13.60;99.90
5055;DHT22;13829;48.990;8.346;2023-05-07T04:15:05;13.70;99.90
5055;DHT22;13829;48.990;8.346;2023-05-07T04:17:32;13.70;99.90
5055;DHT22;13829;48.990;8.346;2023-05-07T04:19:59;13.70;99.90
5055;DHT22;13829;48.990;8.346;2023-05-07T04:22:26;13.70;99.90
5055;DHT22;13829;48.990;8.346;2023-05-07T04:24:53;13.70;99.90
5055;DHT22;13829;48.990;8.346;2023-05-07T04:27:20;13.70;99.90
5055;DHT22;13829;48.990;8.346;2023-05-07T04:29:48;13.70;99.90
5055;DHT22;13829;48.990;8.346;2023-05-07T04:32:15;13.70;99.90
5055;DHT22;13829;48.990;8.346;2023-05-07T04:34:42;13.80;99.90
5055;DHT22;13829;48.990;8.346;2023-05-07T04:37:09;13.90;99.90
5055;DHT22;13829;48.990;8.346;2023-05-07T04:39:36;14.00;99.90
5055;DHT22;13829;48.990;8.346;2023-05-07T04:42:03;14.00;99.90
5055;DHT22;13829;48.990;8.346;2023-05-07T04:44:33;14.00;99.90
5055;DHT22;13829;48.990;8.346;2023-05-07T04:47:01;14.10;99.90
5055;DHT22;13829;48.990;8.346;2023-05-07T04:49:28;14.10;99.90
5055;DHT22;13829;48.990;8.346;2023-05-07T04:51:55;14.20;99.90
5055;DHT22;13829;48.990;8.346;2023-05-07T04:54:22;14.10;99.90
5055;DHT22;13829;48.990;8.346;2023-05-07T04:56:49;14.10;99.90
5055;DHT22;13829;48.990;8.346;2023-05-07T04:59:15;14.20;99.90
5055;DHT22;13829;48.990;8.346;2023-05-07T05:01:43;14.20;99.90
5055;DHT22;13829;48.990;8.346;2023-05-07T05:04:11;14.30;99.90
5055;DHT22;13829;48.990;8.346;2023-05-07T05:06:38;14.30;99.90
5055;DHT22;13829;48.990;8.346;2023-05-07T05:09:05;14.40;99.90
5055;DHT22;13829;48.990;8.346;2023-05-07T05:11:32;14.30;99.90
5055;DHT22;13829;48.990;8.346;2023-05-07T05:14:00;14.20;99.90
5055;DHT22;13829;48.990;8.346;2023-05-07T05:16:27;14.30;99.90
5055;DHT22;13829;48.990;8.346;2023-05-07T05:18:54;14.30;99.90
5055;DHT22;13829;48.990;8.346;2023-05-07T05:21:22;14.40;99.90
5055;DHT22;13829;48.990;8.346;2023-05-07T05:23:49;14.50;99.90
5055;DHT22;13829;48.990;8.346;2023-05-07T05:26:17;14.50;99.90
5055;DHT22;13829;48.990;8.346;2023-05-07T05:28:44;14.60;99.90
5055;DHT22;13829;48.990;8.346;2023-05-07T05:31:11;14.70;99.90
5055;DHT22;13829;48.990;8.346;2023-05-07T05:33:39;14.70;99.90
5055;DHT22;13829;48.990;8.346;2023-05-07T05:36:09;14.80;99.90
5055;DHT22;13829;48.990;8.346;2023-05-07T05:38:37;14.90;99.90
5055;DHT22;13829;48.990;8.346;2023-05-07T05:41:04;15.10;99.90
5055;DHT22;13829;48.990;8.346;2023-05-07T05:43:31;15.30;99.90
5055;DHT22;13829;48.990;8.346;2023-05-07T05:45:58;15.50;99.90
5055;DHT22;13829;48.990;8.346;2023-05-07T05:48:25;15.50;99.90
5055;DHT22;13829;48.990;8.346;2023-05-07T05:50:52;15.80;99.90
5055;DHT22;13829;48.990;8.346;2023-05-07T05:53:19;16.00;99.90
5055;DHT22;13829;48.990;8.346;2023-05-07T05:55:48;16.00;99.90
5055;DHT22;13829;48.990;8.346;2023-05-07T05:58:16;16.00;99.90
5055;DHT22;13829;48.990;8.346;2023-05-07T06:00:44;16.00;99.90
5055;DHT22;13829;48.990;8.346;2023-05-07T06:03:11;16.00;99.90
5055;DHT22;13829;48.990;8.346;2023-05-07T06:05:38;16.10;99.90
5055;DHT22;13829;48.990;8.346;2023-05-07T06:08:05;16.00;99.90
5055;DHT22;13829;48.990;8.346;2023-05-07T06:10:32;16.20;99.90
5055;DHT22;13829;48.990;8.346;2023-05-07T06:13:00;16.40;99.90
5055;DHT22;13829;48.990;8.346;2023-05-07T06:15:27;16.40;99.90
5055;DHT22;13829;48.990;8.346;2023-05-07T06:17:54;16.60;99.90
5055;DHT22;13829;48.990;8.346;2023-05-07T06:20:22;16.70;99.90
5055;DHT22;13829;48.990;8.346;2023-05-07T06:22:50;16.80;99.90
5055;DHT22;13829;48.990;8.346;2023-05-07T06:25:17;16.90;99.90
5055;DHT22;13829;48.990;8.346;2023-05-07T06:27:44;17.00;99.90
5055;DHT22;13829;48.990;8.346;2023-05-07T06:30:12;17.00;99.90
5055;DHT22;13829;48.990;8.346;2023-05-07T06:32:40;17.00;99.90
5055;DHT22;13829;48.990;8.346;2023-05-07T06:35:08;17.10;99.90
5055;DHT22;13829;48.990;8.346;2023-05-07T06:37:35;17.20;99.90
5055;DHT22;13829;48.990;8.346;2023-05-07T06:40:04;17.70;99.90
5055;DHT22;13829;48.990;8.346;2023-05-07T06:42:32;18.00;99.90
5055;DHT22;13829;48.990;8.346;2023-05-07T06:44:59;18.30;99.90
5055;DHT22;13829;48.990;8.346;2023-05-07T06:47:27;18.20;99.90
5055;DHT22;13829;48.990;8.346;2023-05-07T06:49:54;18.30;99.90
5055;DHT22;13829;48.990;8.346;2023-05-07T06:52:21;18.20;99.90
5055;DHT22;13829;48.990;8.346;2023-05-07T06:54:48;18.30;99.90
5055;DHT22;13829;48.990;8.346;2023-05-07T06:57:15;18.40;99.90
5055;DHT22;13829;48.990;8.346;2023-05-07T06:59:42;18.50;99.90
5055;DHT22;13829;48.990;8.346;2023-05-07T07:02:09;19.30;99.90
5055;DHT22;13829;48.990;8.346;2023-05-07T07:04:37;20.40;99.90
5055;DHT22;13829;48.990;8.346;2023-05-07T07:07:04;21.80;99.90
5055;DHT22;13829;48.990;8.346;2023-05-07T07:09:31;23.40;99.20
5055;DHT22;13829;48.990;8.346;2023-05-07T07:11:58;24.10;96.40
5055;DHT22;13829;48.990;8.346;2023-05-07T07:14:25;24.90;94.40
5055;DHT22;13829;48.990;8.346;2023-05-07T07:16:52;25.40;92.60
5055;DHT22;13829;48.990;8.346;2023-05-07T07:19:19;24.70;92.10
5055;DHT22;13829;48.990;8.346;2023-05-07T07:21:48;24.30;93.40
5055;DHT22;13829;48.990;8.346;2023-05-07T07:24:15;24.40;94.10
5055;DHT22;13829;48.990;8.346;2023-05-07T07:26:46;23.70;94.40
5055;DHT22;13829;48.990;8.346;2023-05-07T07:29:13;23.50;95.20
5055;DHT22;13829;48.990;8.346;2023-05-07T07:31:40;23.30;96.40
5055;DHT22;13829;48.990;8.346;2023-05-07T07:34:07;23.80;95.20
5055;DHT22;13829;48.990;8.346;2023-05-07T07:36:34;24.00;94.60
5055;DHT22;13829;48.990;8.346;2023-05-07T07:39:02;24.00;94.20
5055;DHT22;13829;48.990;8.346;2023-05-07T07:41:29;23.60;94.30
5055;DHT22;13829;48.990;8.346;2023-05-07T07:43:56;23.70;94.70
5055;DHT22;13829;48.990;8.346;2023-05-07T07:46:23;23.20;95.10
5055;DHT22;13829;48.990;8.346;2023-05-07T07:48:52;22.80;95.60
5055;DHT22;13829;48.990;8.346;2023-05-07T07:51:19;23.10;96.20
5055;DHT22;13829;48.990;8.346;2023-05-07T07:53:46;23.30;96.20
5055;DHT22;13829;48.990;8.346;2023-05-07T07:56:14;24.10;94.70
5055;DHT22;13829;48.990;8.346;2023-05-07T07:58:41;24.80;94.50
5055;DHT22;13829;48.990;8.346;2023-05-07T08:01:08;25.20;94.80
5055;DHT22;13829;48.990;8.346;2023-05-07T08:03:35;25.90;93.10
5055;DHT22;13829;48.990;8.346;2023-05-07T08:06:03;26.70;92.80
5055;DHT22;13829;48.990;8.346;2023-05-07T08:08:30;27.20;90.50
5055;DHT22;13829;48.990;8.346;2023-05-07T08:10:57;28.10;90.00
5055;DHT22;13829;48.990;8.346;2023-05-07T08:13:26;28.80;84.50
5055;DHT22;13829;48.990;8.346;2023-05-07T08:15:52;29.10;84.50
5055;DHT22;13829;48.990;8.346;2023-05-07T08:18:19;28.70;82.10
5055;DHT22;13829;48.990;8.346;2023-05-07T08:20:46;29.20;82.30
5055;DHT22;13829;48.990;8.346;2023-05-07T08:23:13;29.60;82.00
5055;DHT22;13829;48.990;8.346;2023-05-07T08:25:40;29.70;80.60
5055;DHT22;13829;48.990;8.346;2023-05-07T08:28:08;29.40;78.60
5055;DHT22;13829;48.990;8.346;2023-05-07T08:30:36;28.80;79.60
5055;DHT22;13829;48.990;8.346;2023-05-07T08:33:03;27.90;81.20
5055;DHT22;13829;48.990;8.346;2023-05-07T08:35:30;27.10;84.30
5055;DHT22;13829;48.990;8.346;2023-05-07T08:37:57;27.00;84.60
5055;DHT22;13829;48.990;8.346;2023-05-07T08:40:25;27.00;85.90
5055;DHT22;13829;48.990;8.346;2023-05-07T08:42:53;26.70;85.80
5055;DHT22;13829;48.990;8.346;2023-05-07T08:45:20;26.80;86.50
5055;DHT22;13829;48.990;8.346;2023-05-07T08:47:54;26.60;85.50
5055;DHT22;13829;48.990;8.346;2023-05-07T08:50:24;26.80;86.80
5055;DHT22;13829;48.990;8.346;2023-05-07T08:52:52;26.70;89.80
5055;DHT22;13829;48.990;8.346;2023-05-07T08:55:20;26.60;87.10
5055;DHT22;13829;48.990;8.346;2023-05-07T08:57:47;26.50;86.60
5055;DHT22;13829;48.990;8.346;2023-05-07T09:00:16;26.30;85.60
5055;DHT22;13829;48.990;8.346;2023-05-07T09:02:43;26.00;88.50
5055;DHT22;13829;48.990;8.346;2023-05-07T09:05:11;26.10;89.50
5055;DHT22;13829;48.990;8.346;2023-05-07T09:07:38;26.20;87.60
5055;DHT22;13829;48.990;8.346;2023-05-07T09:10:06;26.10;89.20
5055;DHT22;13829;48.990;8.346;2023-05-07T09:12:37;25.90;90.10
5055;DHT22;13829;48.990;8.346;2023-05-07T09:15:08;26.10;90.60
5055;DHT22;13829;48.990;8.346;2023-05-07T09:17:45;26.10;91.20
5055;DHT22;13829;48.990;8.346;2023-05-07T09:20:14;26.20;91.10
5055;DHT22;13829;48.990;8.346;2023-05-07T09:22:44;26.10;91.20
5055;DHT22;13829;48.990;8.346;2023-05-07T09:25:11;26.00;91.30
5055;DHT22;13829;48.990;8.346;2023-05-07T09:27:38;25.90;90.70
5055;DHT22;13829;48.990;8.346;2023-05-07T09:30:06;25.70;90.70
5055;DHT22;13829;48.990;8.346;2023-05-07T09:32:35;25.70;91.50
5055;DHT22;13829;48.990;8.346;2023-05-07T09:35:04;25.60;90.40
5055;DHT22;13829;48.990;8.346;2023-05-07T09:37:33;25.40;89.00
5055;DHT22;13829;48.990;8.346;2023-05-07T09:40:00;25.20;90.70
5055;DHT22;13829;48.990;8.346;2023-05-07T09:42:27;24.90;90.70
5055;DHT22;13829;48.990;8.346;2023-05-07T09:44:54;24.70;90.50
5055;DHT22;13829;48.990;8.346;2023-05-07T09:47:24;24.80;90.70
5055;DHT22;13829;48.990;8.346;2023-05-07T09:49:56;24.70;89.10
5055;DHT22;13829;48.990;8.346;2023-05-07T09:52:24;24.30;89.40
5055;DHT22;13829;48.990;8.346;2023-05-07T09:55:00;24.00;90.70
5055;DHT22;13829;48.990;8.346;2023-05-07T09:57:29;23.90;91.70
5055;DHT22;13829;48.990;8.346;2023-05-07T09:59:58;24.00;92.00
5055;DHT22;13829;48.990;8.346;2023-05-07T10:02:29;23.80;91.50
5055;DHT22;13829;48.990;8.346;2023-05-07T10:04:58;23.80;91.30
5055;DHT22;13829;48.990;8.346;2023-05-07T10:07:27;23.60;91.10
5055;DHT22;13829;48.990;8.346;2023-05-07T10:09:55;23.40;90.40
5055;DHT22;13829;48.990;8.346;2023-05-07T10:12:25;23.10;90.90
5055;DHT22;13829;48.990;8.346;2023-05-07T10:14:54;22.80;93.10
5055;DHT22;13829;48.990;8.346;2023-05-07T10:17:23;22.90;92.40
5055;DHT22;13829;48.990;8.346;2023-05-07T10:19:50;23.00;94.00
5055;DHT22;13829;48.990;8.346;2023-05-07T10:22:20;23.00;92.80
5055;DHT22;13829;48.990;8.346;2023-05-07T10:24:49;22.90;92.70
5055;DHT22;13829;48.990;8.346;2023-05-07T10:27:19;23.00;93.60
5055;DHT22;13829;48.990;8.346;2023-05-07T10:29:56;22.90;92.90
5055;DHT22;13829;48.990;8.346;2023-05-07T10:32:38;22.80;93.00
5055;DHT22;13829;48.990;8.346;2023-05-07T10:35:11;22.90;92.80
5055;DHT22;13829;48.990;8.346;2023-05-07T10:37:45;22.90;92.10
5055;DHT22;13829;48.990;8.346;2023-05-07T10:40:13;22.90;92.30
5055;DHT22;13829;48.990;8.346;2023-05-07T10:42:53;22.90;92.40
5055;DHT22;13829;48.990;8.346;2023-05-07T10:45:24;23.00;93.50
5055;DHT22;13829;48.990;8.346;2023-05-07T10:48:11;23.10;92.20
5055;DHT22;13829;48.990;8.346;2023-05-07T10:50:40;23.10;92.00
5055;DHT22;13829;48.990;8.346;2023-05-07T10:53:21;23.10;93.30
5055;DHT22;13829;48.990;8.346;2023-05-07T10:56:23;23.10;92.30
5055;DHT22;13829;48.990;8.346;2023-05-07T10:58:53;23.00;93.30
5055;DHT22;13829;48.990;8.346;2023-05-07T11:01:52;23.10;93.00
5055;DHT22;13829;48.990;8.346;2023-05-07T11:04:21;23.10;94.00
5055;DHT22;13829;48.990;8.346;2023-05-07T11:07:25;23.00;93.20
5055;DHT22;13829;48.990;8.346;2023-05-07T11:10:04;23.30;92.60
5055;DHT22;13829;48.990;8.346;2023-05-07T11:12:53;23.40;93.20
5055;DHT22;13829;48.990;8.346;2023-05-07T11:15:40;23.50;92.90
5055;DHT22;13829;48.990;8.346;2023-05-07T11:18:11;23.60;93.90
5055;DHT22;13829;48.990;8.346;2023-05-07T11:20:56;23.80;92.80
5055;DHT22;13829;48.990;8.346;2023-05-07T11:23:55;23.90;92.50
5055;DHT22;13829;48.990;8.346;2023-05-07T11:26:24;23.90;92.80
5055;DHT22;13829;48.990;8.346;2023-05-07T11:28:52;23.80;92.50
5055;DHT22;13829;48.990;8.346;2023-05-07T11:31:21;24.10;92.10
5055;DHT22;13829;48.990;8.346;2023-05-07T11:33:53;24.10;92.00
5055;DHT22;13829;48.990;8.346;2023-05-07T11:36:22;24.10;91.30
5055;DHT22;13829;48.990;8.346;2023-05-07T11:38:50;24.00;91.00
5055;DHT22;13829;48.990;8.346;2023-05-07T11:41:17;24.00;91.80
5055;DHT22;13829;48.990;8.346;2023-05-07T11:43:57;24.20;92.30
5055;DHT22;13829;48.990;8.346;2023-05-07T11:46:26;23.90;90.50
5055;DHT22;13829;48.990;8.346;2023-05-07T11:48:55;24.10;92.30
5055;DHT22;13829;48.990;8.346;2023-05-07T11:51:24;24.10;91.60
5055;DHT22;13829;48.990;8.346;2023-05-07T11:53:52;24.20;91.20
5055;DHT22;13829;48.990;8.346;2023-05-07T11:56:20;24.20;91.90
5055;DHT22;13829;48.990;8.346;2023-05-07T11:58:47;24.30;92.40
5055;DHT22;13829;48.990;8.346;2023-05-07T12:01:15;24.30;92.50
5055;DHT22;13829;48.990;8.346;2023-05-07T12:03:45;24.40;92.40
5055;DHT22;13829;48.990;8.346;2023-05-07T12:06:15;24.50;92.00
5055;DHT22;13829;48.990;8.346;2023-05-07T12:08:44;24.60;92.60
5055;DHT22;13829;48.990;8.346;2023-05-07T12:11:14;24.80;92.00
5055;DHT22;13829;48.990;8.346;2023-05-07T12:13:43;24.90;92.90
5055;DHT22;13829;48.990;8.346;2023-05-07T12:16:11;25.00;92.40
5055;DHT22;13829;48.990;8.346;2023-05-07T12:18:39;25.00;92.50
5055;DHT22;13829;48.990;8.346;2023-05-07T12:21:07;25.20;93.10
5055;DHT22;13829;48.990;8.346;2023-05-07T12:23:37;25.20;92.70
5055;DHT22;13829;48.990;8.346;2023-05-07T12:26:05;25.20;91.80
5055;DHT22;13829;48.990;8.346;2023-05-07T12:28:37;25.30;92.40
5055;DHT22;13829;48.990;8.346;2023-05-07T12:31:05;25.20;93.20
5055;DHT22;13829;48.990;8.346;2023-05-07T12:33:32;25.20;92.40
5055;DHT22;13829;48.990;8.346;2023-05-07T12:36:04;25.20;92.60
5055;DHT22;13829;48.990;8.346;2023-05-07T12:38:36;25.20;92.70
5055;DHT22;13829;48.990;8.346;2023-05-07T12:41:07;25.30;92.10
5055;DHT22;13829;48.990;8.346;2023-05-07T12:43:35;25.40;92.80
5055;DHT22;13829;48.990;8.346;2023-05-07T12:46:05;25.40;92.40
5055;DHT22;13829;48.990;8.346;2023-05-07T12:48:33;25.40;91.90
5055;DHT22;13829;48.990;8.346;2023-05-07T12:51:03;25.50;93.40
5055;DHT22;13829;48.990;8.346;2023-05-07T12:53:32;25.60;93.10
5055;DHT22;13829;48.990;8.346;2023-05-07T12:56:05;25.70;93.10
5055;DHT22;13829;48.990;8.346;2023-05-07T12:58:34;25.70;91.00
5055;DHT22;13829;48.990;8.346;2023-05-07T13:01:05;25.80;91.00
5055;DHT22;13829;48.990;8.346;2023-05-07T13:03:36;25.80;90.70
5055;DHT22;13829;48.990;8.346;2023-05-07T13:06:08;26.00;91.60
5055;DHT22;13829;48.990;8.346;2023-05-07T13:08:39;26.10;91.40
5055;DHT22;13829;48.990;8.346;2023-05-07T13:11:11;26.30;92.60
5055;DHT22;13829;48.990;8.346;2023-05-07T13:13:40;26.40;91.20
5055;DHT22;13829;48.990;8.346;2023-05-07T13:16:09;26.50;91.80
5055;DHT22;13829;48.990;8.346;2023-05-07T13:18:38;26.50;91.70
5055;DHT22;13829;48.990;8.346;2023-05-07T13:21:06;26.50;91.50
5055;DHT22;13829;48.990;8.346;2023-05-07T13:23:34;26.60;91.70
5055;DHT22;13829;48.990;8.346;2023-05-07T13:26:01;26.60;92.30
5055;DHT22;13829;48.990;8.346;2023-05-07T13:28:29;26.50;91.90
5055;DHT22;13829;48.990;8.346;2023-05-07T13:30:56;26.40;91.90
5055;DHT22;13829;48.990;8.346;2023-05-07T13:33:23;26.30;90.90
5055;DHT22;13829;48.990;8.346;2023-05-07T13:35:50;26.10;91.80
5055;DHT22;13829;48.990;8.346;2023-05-07T13:38:17;26.10;91.40
5055;DHT22;13829;48.990;8.346;2023-05-07T13:40:43;25.80;90.20
5055;DHT22;13829;48.990;8.346;2023-05-07T13:43:10;25.90;90.80
5055;DHT22;13829;48.990;8.346;2023-05-07T13:45:39;25.90;91.40
5055;DHT22;13829;48.990;8.346;2023-05-07T13:48:05;25.90;91.70
5055;DHT22;13829;48.990;8.346;2023-05-07T13:50:32;25.90;90.60
5055;DHT22;13829;48.990;8.346;2023-05-07T13:53:00;25.90;90.80
5055;DHT22;13829;48.990;8.346;2023-05-07T13:55:29;25.90;90.40
5055;DHT22;13829;48.990;8.346;2023-05-07T13:57:57;25.80;88.50
5055;DHT22;13829;48.990;8.346;2023-05-07T14:00:25;25.70;90.10
5055;DHT22;13829;48.990;8.346;2023-05-07T14:02:54;25.90;89.50
5055;DHT22;13829;48.990;8.346;2023-05-07T14:05:23;25.80;88.70
5055;DHT22;13829;48.990;8.346;2023-05-07T14:07:50;25.70;89.80
5055;DHT22;13829;48.990;8.346;2023-05-07T14:10:18;25.40;91.00
5055;DHT22;13829;48.990;8.346;2023-05-07T14:12:45;25.30;92.40
5055;DHT22;13829;48.990;8.346;2023-05-07T14:15:12;25.20;92.90
5055;DHT22;13829;48.990;8.346;2023-05-07T14:17:40;25.00;93.20
5055;DHT22;13829;48.990;8.346;2023-05-07T14:20:09;24.90;93.10
5055;DHT22;13829;48.990;8.346;2023-05-07T14:22:36;24.80;92.90
5055;DHT22;13829;48.990;8.346;2023-05-07T14:25:04;24.90;93.20
5055;DHT22;13829;48.990;8.346;2023-05-07T14:27:31;25.00;93.70
5055;DHT22;13829;48.990;8.346;2023-05-07T14:29:58;25.10;93.60
5055;DHT22;13829;48.990;8.346;2023-05-07T14:32:25;25.00;93.50
5055;DHT22;13829;48.990;8.346;2023-05-07T14:34:52;24.90;92.70
5055;DHT22;13829;48.990;8.346;2023-05-07T14:37:21;24.70;91.60
5055;DHT22;13829;48.990;8.346;2023-05-07T14:39:47;24.50;91.30
5055;DHT22;13829;48.990;8.346;2023-05-07T14:42:14;24.50;90.70
5055;DHT22;13829;48.990;8.346;2023-05-07T14:44:41;24.30;90.10
5055;DHT22;13829;48.990;8.346;2023-05-07T14:47:10;24.20;90.30
5055;DHT22;13829;48.990;8.346;2023-05-07T14:49:39;24.10;90.30
5055;DHT22;13829;48.990;8.346;2023-05-07T14:52:06;24.10;90.40
5055;DHT22;13829;48.990;8.346;2023-05-07T14:54:37;24.00;90.10
5055;DHT22;13829;48.990;8.346;2023-05-07T14:57:05;23.90;90.10
5055;DHT22;13829;48.990;8.346;2023-05-07T14:59:33;23.90;90.80
5055;DHT22;13829;48.990;8.346;2023-05-07T15:02:00;23.90;91.60
5055;DHT22;13829;48.990;8.346;2023-05-07T15:04:27;23.90;90.70
5055;DHT22;13829;48.990;8.346;2023-05-07T15:06:54;23.90;90.90
5055;DHT22;13829;48.990;8.346;2023-05-07T15:09:22;23.90;91.30
5055;DHT22;13829;48.990;8.346;2023-05-07T15:11:50;23.90;92.00
5055;DHT22;13829;48.990;8.346;2023-05-07T15:14:17;23.90;91.70
5055;DHT22;13829;48.990;8.346;2023-05-07T15:16:44;24.00;92.50
5055;DHT22;13829;48.990;8.346;2023-05-07T15:19:11;24.10;92.60
5055;DHT22;13829;48.990;8.346;2023-05-07T15:21:40;23.90;92.60
5055;DHT22;13829;48.990;8.346;2023-05-07T15:24:07;23.90;92.60
5055;DHT22;13829;48.990;8.346;2023-05-07T15:26:34;23.80;93.70
5055;DHT22;13829;48.990;8.346;2023-05-07T15:29:03;23.70;93.30
5055;DHT22;13829;48.990;8.346;2023-05-07T15:31:35;23.60;92.80
5055;DHT22;13829;48.990;8.346;2023-05-07T15:34:03;23.50;93.40
5055;DHT22;13829;48.990;8.346;2023-05-07T15:36:30;23.40;94.40
5055;DHT22;13829;48.990;8.346;2023-05-07T15:38:58;23.20;95.50
5055;DHT22;13829;48.990;8.346;2023-05-07T15:41:25;23.20;95.70
5055;DHT22;13829;48.990;8.346;2023-05-07T15:43:52;23.10;96.70
5055;DHT22;13829;48.990;8.346;2023-05-07T15:46:22;23.10;96.70
5055;DHT22;13829;48.990;8.346;2023-05-07T15:48:50;23.10;96.50
5055;DHT22;13829;48.990;8.346;2023-05-07T15:51:18;23.10;95.80
5055;DHT22;13829;48.990;8.346;2023-05-07T15:53:45;22.90;95.60